createdAt,value
2023-03-25T00:01:17.459Z,15.37
2023-03-25T00:03:50.774Z,15.39
2023-03-25T00:06:20.077Z,15.37
2023-03-25T00:08:47.870Z,15.35
2023-03-25T00:11:15.663Z,15.32
2023-03-25T00:13:44.495Z,15.29
2023-03-25T00:16:12.332Z,15.27
2023-03-25T00:18:40.974Z,15.22
2023-03-25T00:21:10.737Z,15.23
2023-03-25T00:23:41.359Z,15.20
2023-03-25T00:26:10.251Z,15.13
2023-03-25T00:28:39.330Z,15.10
2023-03-25T00:31:12.427Z,15.08
2023-03-25T00:33:43.213Z,15.03
2023-03-25T00:36:14.655Z,14.83
2023-03-25T00:38:43.538Z,14.84
2023-03-25T00:41:23.278Z,14.92
2023-03-25T00:44:17.186Z,14.90
2023-03-25T00:46:45.787Z,14.86
2023-03-25T00:49:13.540Z,14.87
2023-03-25T00:51:53.252Z,14.89
2023-03-25T00:54:23.306Z,14.87
2023-03-25T00:56:53.327Z,14.91
2023-03-25T00:59:21.261Z,14.89
2023-03-25T01:01:49.175Z,14.96
2023-03-25T01:04:18.152Z,14.99
2023-03-25T01:06:51.610Z,15.01
2023-03-25T01:09:20.709Z,15.06
2023-03-25T01:11:49.494Z,15.03
2023-03-25T01:14:21.349Z,15.08
2023-03-25T01:16:49.161Z,15.03
2023-03-25T01:19:16.931Z,15.05
2023-03-25T01:21:45.374Z,15.05
2023-03-25T01:24:15.445Z,15.04
2023-03-25T01:26:45.967Z,15.06
2023-03-25T01:29:16.680Z,15.02
2023-03-25T01:31:45.574Z,15.01
2023-03-25T01:34:15.104Z,15.03
2023-03-25T01:36:46.363Z,15.05
2023-03-25T01:39:16.809Z,14.84
2023-03-25T01:41:50.573Z,14.87
2023-03-25T01:44:24.639Z,14.85
2023-03-25T01:46:54.270Z,14.75
2023-03-25T01:49:33.179Z,14.68
2023-03-25T01:52:06.074Z,14.63
2023-03-25T01:54:34.544Z,14.52
2023-03-25T01:57:03.590Z,14.46
2023-03-25T01:59:31.631Z,14.39
2023-03-25T02:02:04.028Z,14.34
2023-03-25T02:04:58.691Z,14.31
2023-03-25T02:07:32.932Z,14.23
2023-03-25T02:10:05.774Z,14.23
2023-03-25T02:12:34.117Z,14.24
2023-03-25T02:15:06.641Z,14.23
2023-03-25T02:18:02.181Z,14.28
2023-03-25T02:21:05.818Z,14.29
2023-03-25T02:24:17.640Z,14.30
2023-03-25T02:27:14.070Z,14.29
2023-03-25T02:29:55.224Z,14.34
2023-03-25T02:33:00.301Z,14.32
2023-03-25T02:36:11.474Z,14.32
2023-03-25T02:38:57.975Z,14.30
2023-03-25T02:41:53.326Z,14.29
2023-03-25T02:44:57.695Z,14.26
2023-03-25T02:47:33.379Z,14.25
2023-03-25T02:50:21.201Z,14.29
2023-03-25T02:52:55.671Z,14.28
2023-03-25T02:55:27.068Z,14.24
2023-03-25T02:57:57.314Z,14.26
2023-03-25T03:00:28.972Z,14.28
2023-03-25T03:03:06.551Z,14.29
2023-03-25T03:05:43.872Z,14.28
2023-03-25T03:08:27.179Z,14.25
2023-03-25T03:11:33.833Z,14.18
2023-03-25T03:14:34.267Z,14.15
2023-03-25T03:17:32.248Z,14.11
2023-03-25T03:20:32.691Z,14.13
2023-03-25T03:23:11.775Z,14.11
2023-03-25T03:26:09.026Z,14.11
2023-03-25T03:28:55.904Z,14.15
2023-03-25T03:31:50.754Z,14.17
2023-03-25T03:34:41.168Z,14.17
2023-03-25T03:37:12.305Z,14.22
2023-03-25T03:39:43.275Z,14.22
2023-03-25T03:42:45.242Z,14.26
2023-03-25T03:45:48.572Z,14.22
2023-03-25T03:48:25.825Z,14.25
2023-03-25T03:51:03.142Z,14.26
2023-03-25T03:53:37.914Z,14.28
2023-03-25T03:56:37.167Z,14.25
2023-03-25T03:59:36.003Z,14.27
2023-03-25T04:02:17.050Z,14.24
2023-03-25T04:04:45.264Z,14.08
2023-03-25T04:07:19.480Z,14.18
2023-03-25T04:10:29.765Z,14.19
2023-03-25T04:13:00.517Z,14.13
2023-03-25T04:15:28.294Z,14.14
2023-03-25T04:17:57.447Z,14.17
2023-03-25T04:20:29.721Z,14.17
2023-03-25T04:22:57.731Z,14.15
2023-03-25T04:25:26.112Z,14.12
2023-03-25T04:27:58.850Z,14.12
2023-03-25T04:30:48.638Z,14.09
2023-03-25T04:33:17.730Z,14.06
2023-03-25T04:35:45.571Z,14.02
2023-03-25T04:38:18.072Z,13.99
2023-03-25T04:40:47.030Z,13.99
2023-03-25T04:43:16.325Z,13.94
2023-03-25T04:45:49.750Z,13.94
2023-03-25T04:48:30.166Z,13.90
2023-03-25T04:51:03.496Z,13.85
2023-03-25T04:53:31.414Z,13.85
2023-03-25T04:56:00.179Z,13.86
2023-03-25T04:58:28.800Z,13.88
2023-03-25T05:00:56.872Z,13.92
2023-03-25T05:03:24.954Z,13.93
2023-03-25T05:05:53.717Z,13.97
2023-03-25T05:08:22.589Z,14.01
2023-03-25T05:10:50.661Z,14.04
2023-03-25T05:13:18.678Z,14.08
2023-03-25T05:15:48.012Z,14.11
2023-03-25T05:18:17.401Z,14.10
2023-03-25T05:20:47.005Z,14.15
2023-03-25T05:23:18.042Z,14.15
2023-03-25T05:25:51.592Z,14.15
2023-03-25T05:28:20.746Z,14.17
2023-03-25T05:30:48.908Z,14.17
2023-03-25T05:33:18.027Z,14.18
2023-03-25T05:35:46.816Z,14.17
2023-03-25T05:38:19.285Z,14.13
2023-03-25T05:40:49.476Z,14.17
2023-03-25T05:43:23.114Z,14.13
2023-03-25T05:45:51.318Z,14.14
2023-03-25T05:48:19.276Z,14.12
2023-03-25T05:50:47.132Z,14.10
2023-03-25T05:53:15.978Z,14.08
2023-03-25T05:55:43.985Z,14.08
2023-03-25T05:58:11.992Z,14.07
2023-03-25T06:00:39.803Z,14.06
2023-03-25T06:03:08.698Z,14.06
2023-03-25T06:05:39.865Z,14.08
2023-03-25T06:08:08.378Z,13.99
2023-03-25T06:10:36.692Z,14.04
2023-03-25T06:13:04.565Z,14.04
2023-03-25T06:15:39.488Z,14.04
2023-03-25T06:18:07.478Z,14.04
2023-03-25T06:20:35.333Z,14.04
2023-03-25T06:23:03.196Z,14.04
2023-03-25T06:25:31.320Z,14.06
2023-03-25T06:28:03.253Z,14.08
2023-03-25T06:30:31.350Z,14.09
2023-03-25T06:33:03.125Z,14.08
2023-03-25T06:35:31.465Z,14.05
2023-03-25T06:38:01.842Z,14.02
2023-03-25T06:40:39.066Z,13.96
2023-03-25T06:43:07.711Z,13.93
2023-03-25T06:45:37.940Z,13.90
2023-03-25T06:48:11.616Z,13.88
2023-03-25T06:50:39.297Z,13.88
2023-03-25T06:53:07.049Z,13.89
2023-03-25T06:55:35.249Z,13.99
2023-03-25T06:58:03.634Z,14.00
2023-03-25T07:00:31.797Z,14.06
2023-03-25T07:02:59.665Z,14.11
2023-03-25T07:05:27.770Z,14.13
2023-03-25T07:07:55.751Z,14.19
2023-03-25T07:10:23.789Z,14.16
2023-03-25T07:12:51.605Z,14.29
2023-03-25T07:15:19.650Z,14.36
2023-03-25T07:17:50.023Z,14.40
2023-03-25T07:20:18.001Z,14.45
2023-03-25T07:22:45.776Z,14.49
2023-03-25T07:25:14.074Z,14.52
2023-03-25T07:27:42.058Z,14.60
2023-03-25T07:30:14.849Z,14.68
2023-03-25T07:32:45.756Z,14.77
2023-03-25T07:35:13.660Z,14.82
2023-03-25T07:37:41.479Z,14.91
2023-03-25T07:40:09.853Z,14.99
2023-03-25T07:42:38.489Z,15.00
2023-03-25T07:45:43.935Z,14.97
2023-03-25T07:48:14.712Z,15.02
2023-03-25T07:50:43.928Z,15.06
2023-03-25T07:53:11.857Z,15.13
2023-03-25T07:55:39.767Z,15.11
2023-03-25T07:58:07.636Z,15.14
2023-03-25T08:00:35.373Z,15.11
2023-03-25T08:03:03.913Z,15.10
2023-03-25T08:05:32.006Z,15.12
2023-03-25T08:08:00.244Z,15.18
2023-03-25T08:10:28.644Z,15.19
2023-03-25T08:12:56.499Z,15.19
2023-03-25T08:15:25.052Z,15.18
2023-03-25T08:17:54.160Z,15.18
2023-03-25T08:20:22.003Z,15.10
2023-03-25T08:22:49.741Z,15.07
2023-03-25T08:25:17.569Z,14.96
2023-03-25T08:27:45.386Z,14.82
2023-03-25T08:30:14.649Z,14.71
2023-03-25T08:32:46.312Z,14.66
2023-03-25T08:35:14.210Z,14.57
2023-03-25T08:37:41.976Z,14.54
2023-03-25T08:40:09.941Z,14.57
2023-03-25T08:42:38.483Z,14.53
2023-03-25T08:45:07.333Z,14.55
2023-03-25T08:47:37.280Z,14.51
2023-03-25T08:50:06.188Z,14.56
2023-03-25T08:52:33.969Z,14.47
2023-03-25T08:55:01.873Z,14.39
2023-03-25T08:57:29.925Z,14.36
2023-03-25T08:59:57.680Z,14.34
2023-03-25T09:02:26.345Z,14.33
2023-03-25T09:04:54.554Z,14.41
2023-03-25T09:07:23.245Z,14.48
2023-03-25T09:09:51.144Z,14.57
2023-03-25T09:12:20.296Z,14.70
2023-03-25T09:14:48.078Z,14.75
2023-03-25T09:17:16.152Z,14.83
2023-03-25T09:19:44.299Z,14.84
2023-03-25T09:22:12.003Z,14.90
2023-03-25T09:24:40.676Z,14.98
2023-03-25T09:27:08.820Z,15.03
2023-03-25T09:29:36.620Z,15.05
2023-03-25T09:32:04.761Z,15.11
2023-03-25T09:34:32.904Z,15.20
2023-03-25T09:37:01.221Z,15.22
2023-03-25T09:39:29.516Z,15.38
2023-03-25T09:42:40.918Z,15.56
2023-03-25T09:45:41.042Z,15.64
2023-03-25T09:48:44.815Z,15.67
2023-03-25T09:51:18.998Z,15.75
2023-03-25T09:54:22.587Z,15.91
2023-03-25T09:56:51.581Z,15.98
2023-03-25T09:59:23.565Z,16.08
2023-03-25T10:02:06.737Z,16.18
2023-03-25T10:04:53.448Z,16.25
2023-03-25T10:07:46.166Z,16.40
2023-03-25T10:10:43.423Z,16.56
2023-03-25T10:13:25.522Z,16.64
2023-03-25T10:16:24.120Z,16.68
2023-03-25T10:19:40.550Z,16.70
2023-03-25T10:22:47.402Z,16.73
2023-03-25T10:25:25.114Z,16.77
2023-03-25T10:27:54.391Z,16.76
2023-03-25T10:30:41.599Z,16.80
2023-03-25T10:33:41.552Z,16.73
2023-03-25T10:36:19.110Z,16.71
2023-03-25T10:38:54.411Z,16.68
2023-03-25T10:41:43.239Z,16.58
2023-03-25T10:44:11.983Z,16.46
2023-03-25T10:46:50.486Z,16.49
2023-03-25T10:49:26.085Z,16.49
2023-03-25T10:51:55.004Z,16.50
2023-03-25T10:54:39.395Z,16.56
2023-03-25T10:57:11.169Z,16.62
2023-03-25T11:00:16.808Z,16.72
2023-03-25T11:02:46.642Z,16.81
2023-03-25T11:05:20.794Z,16.92
2023-03-25T11:07:55.239Z,17.03
2023-03-25T11:10:34.243Z,17.14
2023-03-25T11:13:05.215Z,17.14
2023-03-25T11:15:39.338Z,17.31
2023-03-25T11:18:24.748Z,17.41
2023-03-25T11:21:01.293Z,17.48
2023-03-25T11:23:36.436Z,17.62
2023-03-25T11:26:27.153Z,17.72
2023-03-25T11:29:02.379Z,17.73
2023-03-25T11:31:36.829Z,17.81
2023-03-25T11:34:04.603Z,17.79
2023-03-25T11:36:37.908Z,17.84
2023-03-25T11:39:22.543Z,17.91
2023-03-25T11:41:53.405Z,17.92
2023-03-25T11:44:33.395Z,17.93
2023-03-25T11:47:05.620Z,17.99
2023-03-25T11:49:41.422Z,17.98
2023-03-25T11:52:22.302Z,18.02
2023-03-25T11:54:52.823Z,17.96
2023-03-25T11:57:28.868Z,17.95
2023-03-25T12:00:14.872Z,17.88
2023-03-25T12:02:43.223Z,17.71
2023-03-25T12:05:15.537Z,17.63
2023-03-25T12:07:51.271Z,17.45
2023-03-25T12:10:32.157Z,17.31
2023-03-25T12:13:21.222Z,17.11
2023-03-25T12:16:44.878Z,16.97
2023-03-25T12:19:34.266Z,16.91
2023-03-25T12:23:00.411Z,16.79
2023-03-25T12:25:54.563Z,16.80
2023-03-25T12:29:05.084Z,16.82
2023-03-25T12:31:51.926Z,16.79
2023-03-25T12:34:41.198Z,16.78
2023-03-25T12:37:54.444Z,16.68
2023-03-25T12:40:44.909Z,16.67
2023-03-25T12:43:21.600Z,16.69
2023-03-25T12:46:25.470Z,16.67
2023-03-25T12:49:42.725Z,16.63
2023-03-25T12:52:22.007Z,16.70
2023-03-25T12:55:40.781Z,16.78
2023-03-25T12:58:46.020Z,16.87
2023-03-25T13:01:53.751Z,16.97
2023-03-25T13:04:52.543Z,17.12
2023-03-25T13:07:34.755Z,17.22
2023-03-25T13:10:22.690Z,17.33
2023-03-25T13:12:58.565Z,17.44
2023-03-25T13:15:41.782Z,17.59
2023-03-25T13:18:13.028Z,17.51
2023-03-25T13:21:14.033Z,17.69
2023-03-25T13:23:46.811Z,17.78
2023-03-25T13:26:31.246Z,17.88
2023-03-25T13:29:22.349Z,17.92
2023-03-25T13:31:54.707Z,18.04
2023-03-25T13:34:43.955Z,18.21
2023-03-25T13:37:36.251Z,18.38
2023-03-25T13:40:10.831Z,18.45
2023-03-25T13:43:00.480Z,18.49
2023-03-25T13:45:34.953Z,18.42
2023-03-25T13:48:26.209Z,18.39
2023-03-25T13:50:55.530Z,18.24
2023-03-25T13:53:28.309Z,18.29
2023-03-25T13:56:55.515Z,18.31
2023-03-25T14:00:06.905Z,18.31
2023-03-25T14:03:24.665Z,18.33
2023-03-25T14:06:29.454Z,18.26
2023-03-25T14:09:55.663Z,18.12
2023-03-25T14:12:53.176Z,18.00
2023-03-25T14:15:28.404Z,17.97
2023-03-25T14:17:58.300Z,17.96
2023-03-25T14:20:41.780Z,17.91
2023-03-25T14:23:22.655Z,17.89
2023-03-25T14:25:58.463Z,17.84
2023-03-25T14:28:41.273Z,17.79
2023-03-25T14:31:15.293Z,17.77
2023-03-25T14:34:03.999Z,17.75
2023-03-25T14:36:38.647Z,17.78
2023-03-25T14:39:31.651Z,17.83
2023-03-25T14:42:03.532Z,17.85
2023-03-25T14:44:42.024Z,17.86
2023-03-25T14:47:17.202Z,17.90
2023-03-25T14:50:05.598Z,17.90
2023-03-25T14:52:46.035Z,17.90
2023-03-25T14:55:19.670Z,17.88
2023-03-25T14:57:50.642Z,17.87
2023-03-25T15:00:33.081Z,17.88
2023-03-25T15:03:18.180Z,17.94
2023-03-25T15:06:00.251Z,17.92
2023-03-25T15:08:38.249Z,17.91
2023-03-25T15:11:28.335Z,17.93
2023-03-25T15:14:05.073Z,17.94
2023-03-25T15:17:06.177Z,18.00
2023-03-25T15:19:59.587Z,18.00
2023-03-25T15:22:27.427Z,17.99
2023-03-25T15:24:59.403Z,18.00
2023-03-25T15:27:39.111Z,17.87
2023-03-25T15:30:56.784Z,17.98
2023-03-25T15:34:19.609Z,17.98
2023-03-25T15:37:15.545Z,18.07
2023-03-25T15:40:16.116Z,18.08
2023-03-25T15:43:21.558Z,18.12
2023-03-25T15:46:04.973Z,18.19
2023-03-25T15:49:02.395Z,18.19
2023-03-25T15:51:56.742Z,18.11
2023-03-25T15:55:05.166Z,18.00
2023-03-25T15:57:56.098Z,18.08
2023-03-25T16:00:37.459Z,18.09
2023-03-25T16:03:21.790Z,18.09
2023-03-25T16:06:00.537Z,18.12
2023-03-25T16:08:49.336Z,18.18
2023-03-25T16:11:28.674Z,18.20
2023-03-25T16:14:22.332Z,18.20
2023-03-25T16:16:54.311Z,18.20
2023-03-25T16:19:31.687Z,18.23
2023-03-25T16:22:08.283Z,18.19
2023-03-25T16:24:37.103Z,18.17
2023-03-25T16:27:19.576Z,18.20
2023-03-25T16:29:53.839Z,18.17
2023-03-25T16:32:41.916Z,18.15
2023-03-25T16:35:29.921Z,18.14
2023-03-25T16:38:08.791Z,18.15
2023-03-25T16:40:43.472Z,18.14
2023-03-25T16:43:27.528Z,18.11
2023-03-25T16:46:04.632Z,18.14
2023-03-25T16:48:51.205Z,18.14
2023-03-25T16:51:36.014Z,18.16
2023-03-25T16:54:30.565Z,18.16
2023-03-25T16:56:59.405Z,18.13
2023-03-25T16:59:35.239Z,18.20
2023-03-25T17:02:05.152Z,18.20
2023-03-25T17:04:44.018Z,18.23
2023-03-25T17:07:20.838Z,18.25
2023-03-25T17:09:58.611Z,18.24
2023-03-25T17:12:29.610Z,18.16
2023-03-25T17:15:09.254Z,18.11
2023-03-25T17:17:49.695Z,18.12
2023-03-25T17:20:32.415Z,18.08
2023-03-25T17:23:08.369Z,18.07
2023-03-25T17:25:59.016Z,18.05
2023-03-25T17:28:54.820Z,17.98
2023-03-25T17:31:39.277Z,17.97
2023-03-25T17:34:30.365Z,17.93
2023-03-25T17:37:10.151Z,17.88
2023-03-25T17:39:38.138Z,17.85
2023-03-25T17:42:24.880Z,17.85
2023-03-25T17:44:53.596Z,17.81
2023-03-25T17:47:24.657Z,17.83
2023-03-25T17:49:52.805Z,17.81
2023-03-25T17:52:21.019Z,17.75
2023-03-25T17:54:51.427Z,17.79
2023-03-25T17:57:20.349Z,17.78
2023-03-25T17:59:51.171Z,17.79
2023-03-25T18:02:19.067Z,17.76
2023-03-25T18:04:46.907Z,17.82
2023-03-25T18:07:14.884Z,17.83
2023-03-25T18:09:42.965Z,17.77
2023-03-25T18:12:11.158Z,17.77
2023-03-25T18:14:40.844Z,17.75
2023-03-25T18:17:14.052Z,17.71
2023-03-25T18:19:42.661Z,17.62
2023-03-25T18:22:19.846Z,17.51
2023-03-25T18:24:48.150Z,17.39
2023-03-25T18:27:19.111Z,17.37
2023-03-25T18:29:47.058Z,17.29
2023-03-25T18:32:14.784Z,17.28
2023-03-25T18:34:42.968Z,17.27
2023-03-25T18:37:13.239Z,17.26
2023-03-25T18:39:41.068Z,17.26
2023-03-25T18:42:08.946Z,17.18
2023-03-25T18:44:36.726Z,17.22
2023-03-25T18:47:04.530Z,17.20
2023-03-25T18:49:32.435Z,17.20
2023-03-25T18:52:02.488Z,17.14
2023-03-25T18:54:32.169Z,17.09
2023-03-25T18:56:59.993Z,17.02
2023-03-25T18:59:27.813Z,16.98
2023-03-25T19:01:56.031Z,16.99
2023-03-25T19:04:24.210Z,16.95
2023-03-25T19:06:53.926Z,16.93
2023-03-25T19:09:24.326Z,16.87
2023-03-25T19:11:52.387Z,16.87
2023-03-25T19:14:20.224Z,16.82
2023-03-25T19:17:01.292Z,16.82
2023-03-25T19:19:32.003Z,16.76
2023-03-25T19:22:01.355Z,16.72
2023-03-25T19:24:29.191Z,16.72
2023-03-25T19:26:58.815Z,16.66
2023-03-25T19:29:27.698Z,16.64
2023-03-25T19:31:55.556Z,16.63
2023-03-25T19:34:23.398Z,16.66
2023-03-25T19:36:53.402Z,16.68
2023-03-25T19:39:23.340Z,16.69
2023-03-25T19:41:52.810Z,16.66
2023-03-25T19:44:20.839Z,16.68
2023-03-25T19:46:49.948Z,16.65
2023-03-25T19:49:26.103Z,16.64
2023-03-25T19:52:00.687Z,16.60
2023-03-25T19:54:28.809Z,16.61
2023-03-25T19:56:57.101Z,16.55
2023-03-25T19:59:24.965Z,16.45
2023-03-25T20:01:53.181Z,16.43
2023-03-25T20:04:20.980Z,16.37
2023-03-25T20:06:48.974Z,16.35
2023-03-25T20:09:16.945Z,16.20
2023-03-25T20:11:44.912Z,16.15
2023-03-25T20:14:12.752Z,16.04
2023-03-25T20:16:41.301Z,15.92
2023-03-25T20:19:09.436Z,15.80
2023-03-25T20:21:37.360Z,15.71
2023-03-25T20:24:05.688Z,15.65
2023-03-25T20:26:33.469Z,15.61
2023-03-25T20:29:03.364Z,15.59
2023-03-25T20:31:33.842Z,15.55
2023-03-25T20:34:02.392Z,15.48
2023-03-25T20:36:30.856Z,15.45
2023-03-25T20:38:59.367Z,15.35
2023-03-25T20:41:27.692Z,15.39
2023-03-25T20:43:55.720Z,15.33
2023-03-25T20:46:27.988Z,15.29
2023-03-25T20:48:56.491Z,15.29
2023-03-25T20:51:25.392Z,15.27
2023-03-25T20:53:53.484Z,15.23
2023-03-25T20:56:21.484Z,15.22
2023-03-25T20:58:49.554Z,15.22
2023-03-25T21:01:18.002Z,15.22
2023-03-25T21:03:45.881Z,15.28
2023-03-25T21:06:24.380Z,15.31
2023-03-25T21:08:55.794Z,15.29
2023-03-25T21:11:24.241Z,15.32
2023-03-25T21:13:51.986Z,15.36
2023-03-25T21:16:20.009Z,15.35
2023-03-25T21:18:49.297Z,15.36
2023-03-25T21:21:19.342Z,15.38
2023-03-25T21:23:49.168Z,15.36
2023-03-25T21:26:17.712Z,15.30
2023-03-25T21:28:49.280Z,15.37
2023-03-25T21:31:22.098Z,15.38
2023-03-25T21:33:53.064Z,15.35
2023-03-25T21:36:24.949Z,15.32
2023-03-25T21:39:00.948Z,15.26
2023-03-25T21:41:29.945Z,15.21
2023-03-25T21:43:58.044Z,15.14
2023-03-25T21:46:28.908Z,15.09
2023-03-25T21:49:03.543Z,15.00
2023-03-25T21:51:32.912Z,14.99
2023-03-25T21:54:00.711Z,14.99
2023-03-25T21:56:33.236Z,14.96
2023-03-25T21:59:05.556Z,14.96
2023-03-25T22:01:35.698Z,14.99
2023-03-25T22:04:03.704Z,15.01
2023-03-25T22:06:33.343Z,15.02
2023-03-25T22:09:05.473Z,15.04
2023-03-25T22:11:35.630Z,15.05
2023-03-25T22:14:05.857Z,15.10
2023-03-25T22:16:34.137Z,15.13
2023-03-25T22:19:02.285Z,15.16
2023-03-25T22:21:34.423Z,15.21
2023-03-25T22:24:07.261Z,15.23
2023-03-25T22:26:39.357Z,15.27
2023-03-25T22:29:10.274Z,15.26
2023-03-25T22:31:42.815Z,15.28
2023-03-25T22:34:15.125Z,15.30
2023-03-25T22:36:53.202Z,15.35
2023-03-25T22:39:23.168Z,15.31
2023-03-25T22:41:51.971Z,15.33
2023-03-25T22:44:19.980Z,15.32
2023-03-25T22:46:49.748Z,15.31
2023-03-25T22:49:18.572Z,15.32
2023-03-25T22:51:46.619Z,15.38
2023-03-25T22:54:14.789Z,15.41
2023-03-25T22:56:43.708Z,15.42
2023-03-25T22:59:14.003Z,15.42
2023-03-25T23:01:42.839Z,15.42
2023-03-25T23:04:11.327Z,15.43
2023-03-25T23:06:41.538Z,15.40
2023-03-25T23:09:10.526Z,15.33
2023-03-25T23:11:39.203Z,15.27
2023-03-25T23:14:13.338Z,15.25
2023-03-25T23:16:42.133Z,15.22
2023-03-25T23:19:10.346Z,15.20
2023-03-25T23:21:38.465Z,15.21
2023-03-25T23:24:06.850Z,15.14
2023-03-25T23:26:39.243Z,15.13
2023-03-25T23:29:12.242Z,15.11
2023-03-25T23:31:43.338Z,15.12
2023-03-25T23:34:16.997Z,15.11
2023-03-25T23:36:46.746Z,15.11
2023-03-25T23:39:18.271Z,15.14
2023-03-25T23:41:45.968Z,14.93
2023-03-25T23:44:14.018Z,15.02
2023-03-25T23:46:42.110Z,15.09
2023-03-25T23:49:10.765Z,15.08
2023-03-25T23:51:41.930Z,15.05
2023-03-25T23:54:13.356Z,15.00
2023-03-25T23:56:42.305Z,14.93
2023-03-25T23:59:12.000Z,14.93
